createdAt,value
2017-10-10T00:00:38.471Z,14.40
2017-10-10T00:03:06.631Z,13.57
2017-10-10T00:05:35.733Z,14.73
2017-10-10T00:08:04.187Z,13.90
2017-10-10T00:10:33.845Z,12.27
2017-10-10T00:13:06.068Z,9.23
2017-10-10T00:15:37.443Z,9.87
2017-10-10T00:18:07.019Z,8.53
2017-10-10T00:20:35.957Z,8.83
2017-10-10T00:23:05.117Z,9.50
2017-10-10T00:25:33.294Z,8.20
2017-10-10T00:28:02.360Z,7.60
2017-10-10T00:30:31.788Z,7.97
2017-10-10T00:32:59.909Z,8.57
2017-10-10T00:35:28.821Z,9.30
2017-10-10T00:37:57.580Z,8.63
2017-10-10T00:40:26.672Z,7.77
2017-10-10T00:42:54.813Z,7.73
2017-10-10T00:45:22.966Z,7.73
2017-10-10T00:47:51.092Z,8.30
2017-10-10T00:50:19.987Z,7.70
2017-10-10T00:52:50.979Z,8.13
2017-10-10T00:55:20.250Z,8.87
2017-10-10T00:57:48.410Z,8.50
2017-10-10T01:00:17.305Z,7.37
2017-10-10T01:02:46.473Z,8.07
2017-10-10T01:05:14.613Z,9.17
2017-10-10T01:07:42.720Z,8.13
2017-10-10T01:10:11.244Z,7.77
2017-10-10T01:12:39.371Z,8.00
2017-10-10T01:15:07.508Z,7.13
2017-10-10T01:17:35.644Z,7.83
2017-10-10T01:20:04.522Z,7.60
2017-10-10T01:22:33.443Z,7.33
2017-10-10T01:25:01.568Z,7.33
2017-10-10T01:27:29.691Z,7.80
2017-10-10T01:29:57.810Z,7.50
2017-10-10T01:32:25.944Z,7.30
2017-10-10T01:34:54.062Z,6.63
2017-10-10T01:37:23.321Z,7.00
2017-10-10T01:39:51.445Z,7.40
2017-10-10T01:42:19.593Z,8.93
2017-10-10T01:44:47.711Z,8.70
2017-10-10T01:47:16.947Z,8.63
2017-10-10T01:49:45.068Z,8.30
2017-10-10T01:52:13.971Z,7.63
2017-10-10T01:54:42.090Z,7.77
2017-10-10T01:57:10.234Z,7.90
2017-10-10T01:59:38.346Z,7.87
2017-10-10T02:02:06.523Z,7.80
2017-10-10T02:04:34.642Z,7.40
2017-10-10T02:07:02.782Z,7.50
2017-10-10T02:09:30.890Z,6.73
2017-10-10T02:11:59.011Z,6.70
2017-10-10T02:14:27.155Z,5.93
2017-10-10T02:16:55.296Z,5.00
2017-10-10T02:19:24.163Z,4.47
2017-10-10T02:21:52.303Z,5.87
2017-10-10T02:24:20.404Z,3.80
2017-10-10T02:26:48.514Z,4.57
2017-10-10T02:29:16.636Z,4.07
2017-10-10T02:31:44.750Z,3.30
2017-10-10T02:34:13.647Z,3.10
2017-10-10T02:36:42.538Z,3.73
2017-10-10T02:39:11.430Z,3.50
2017-10-10T02:41:39.545Z,3.90
2017-10-10T02:44:09.732Z,4.07
2017-10-10T02:46:38.287Z,4.97
2017-10-10T02:49:06.424Z,4.43
2017-10-10T02:51:34.524Z,4.97
2017-10-10T02:54:02.686Z,5.40
2017-10-10T02:56:31.681Z,5.07
2017-10-10T02:58:59.827Z,5.67
2017-10-10T03:01:27.936Z,6.07
2017-10-10T03:03:56.055Z,5.80
2017-10-10T03:06:24.153Z,6.00
2017-10-10T03:08:52.271Z,5.80
2017-10-10T03:11:21.149Z,6.90
2017-10-10T03:13:49.291Z,6.67
2017-10-10T03:16:17.426Z,7.43
2017-10-10T03:18:45.562Z,8.23
2017-10-10T03:21:14.758Z,9.03
2017-10-10T03:23:42.915Z,9.23
2017-10-10T03:26:11.038Z,9.80
2017-10-10T03:28:39.190Z,10.10
2017-10-10T03:31:08.081Z,10.47
2017-10-10T03:33:36.966Z,11.73
2017-10-10T03:36:05.138Z,11.03
2017-10-10T03:38:33.260Z,12.10
2017-10-10T03:41:01.415Z,11.33
2017-10-10T03:43:29.585Z,10.90
2017-10-10T03:45:58.503Z,12.60
2017-10-10T03:48:26.608Z,12.00
2017-10-10T03:50:54.742Z,13.20
2017-10-10T03:53:22.860Z,14.03
2017-10-10T03:55:52.035Z,12.13
2017-10-10T03:58:20.170Z,13.83
2017-10-10T04:00:48.752Z,14.20
2017-10-10T04:03:17.908Z,13.60
2017-10-10T04:05:46.057Z,13.40
2017-10-10T04:08:14.178Z,14.27
2017-10-10T04:10:43.085Z,14.37
2017-10-10T04:13:11.598Z,14.63
2017-10-10T04:15:40.953Z,13.62
2017-10-10T04:18:12.217Z,13.90
2017-10-10T04:20:40.373Z,15.40
2017-10-10T04:23:09.257Z,16.00
2017-10-10T04:25:38.176Z,14.97
2017-10-10T04:28:06.295Z,16.10
2017-10-10T04:30:34.930Z,16.90
2017-10-10T04:33:03.042Z,16.63
2017-10-10T04:35:31.916Z,16.87
2017-10-10T04:38:00.049Z,17.70
2017-10-10T04:40:28.958Z,16.77
2017-10-10T04:42:57.092Z,17.83
2017-10-10T04:45:25.211Z,18.23
2017-10-10T04:47:53.370Z,17.67
2017-10-10T04:50:22.258Z,17.90
2017-10-10T04:52:51.181Z,19.87
2017-10-10T04:55:19.321Z,19.90
2017-10-10T04:57:48.250Z,19.30
2017-10-10T05:00:16.368Z,19.40
2017-10-10T05:02:44.540Z,19.67
2017-10-10T05:05:12.657Z,19.57
2017-10-10T05:07:40.806Z,21.07
2017-10-10T05:10:09.719Z,22.37
2017-10-10T05:12:37.889Z,21.00
2017-10-10T05:15:06.014Z,22.50
2017-10-10T05:17:35.293Z,22.90
2017-10-10T05:20:04.881Z,23.67
2017-10-10T05:22:33.024Z,21.93
2017-10-10T05:25:01.924Z,23.10
2017-10-10T05:27:30.857Z,22.17
2017-10-10T05:30:00.227Z,22.33
2017-10-10T05:32:30.502Z,23.00
2017-10-10T05:34:58.624Z,22.30
2017-10-10T05:37:28.783Z,23.43
2017-10-10T05:39:56.899Z,20.67
2017-10-10T05:42:25.835Z,22.60
2017-10-10T05:44:54.365Z,23.10
2017-10-10T05:47:22.483Z,20.67
2017-10-10T05:49:51.536Z,22.97
2017-10-10T05:52:20.436Z,23.97
2017-10-10T05:54:49.345Z,24.53
2017-10-10T05:57:17.479Z,24.60
2017-10-10T05:59:47.666Z,21.87
2017-10-10T06:02:15.805Z,20.73
2017-10-10T06:04:44.312Z,20.77
2017-10-10T06:07:12.426Z,19.33
2017-10-10T06:09:40.584Z,21.93
2017-10-10T06:12:08.717Z,22.03
2017-10-10T06:14:36.865Z,21.63
2017-10-10T06:17:06.627Z,23.33
2017-10-10T06:19:38.053Z,19.93
2017-10-10T06:22:07.047Z,22.17
2017-10-10T06:24:35.197Z,21.80
2017-10-10T06:27:04.089Z,21.30
2017-10-10T06:29:34.975Z,21.30
2017-10-10T06:32:04.743Z,22.43
2017-10-10T06:34:33.671Z,21.00
2017-10-10T06:37:02.622Z,18.63
2017-10-10T06:39:31.532Z,16.70
2017-10-10T06:41:59.705Z,17.97
2017-10-10T06:44:28.375Z,19.53
2017-10-10T06:46:57.264Z,17.73
2017-10-10T06:49:26.294Z,19.37
2017-10-10T06:51:55.922Z,18.00
2017-10-10T06:54:24.153Z,19.17
2017-10-10T06:56:53.030Z,17.70
2017-10-10T06:59:21.343Z,17.60
2017-10-10T07:01:49.456Z,17.60
2017-10-10T07:04:19.523Z,18.53
2017-10-10T07:06:47.963Z,19.03
2017-10-10T07:09:16.084Z,18.07
2017-10-10T07:11:46.630Z,19.27
2017-10-10T07:14:16.812Z,18.70
2017-10-10T07:16:46.218Z,18.93
2017-10-10T07:19:18.883Z,19.67
2017-10-10T07:21:47.809Z,19.13
2017-10-10T07:24:16.972Z,20.63
2017-10-10T07:26:45.891Z,19.83
2017-10-10T07:29:14.011Z,20.10
2017-10-10T07:31:43.062Z,20.60
2017-10-10T07:34:11.171Z,19.67
2017-10-10T07:36:39.808Z,19.30
2017-10-10T07:39:07.935Z,20.10
2017-10-10T07:41:36.065Z,20.67
2017-10-10T07:44:04.195Z,21.90
2017-10-10T07:46:33.613Z,20.53
2017-10-10T07:49:03.250Z,20.57
2017-10-10T07:51:31.782Z,19.10
2017-10-10T07:53:59.914Z,21.00
2017-10-10T07:56:28.060Z,21.03
2017-10-10T07:58:57.805Z,21.50
2017-10-10T08:01:26.023Z,19.43
2017-10-10T08:03:56.032Z,21.50
2017-10-10T08:06:24.175Z,21.57
2017-10-10T08:08:52.306Z,20.60
2017-10-10T08:11:23.571Z,21.20
2017-10-10T08:13:54.145Z,21.20
2017-10-10T08:16:23.068Z,20.73
2017-10-10T08:18:51.967Z,22.40
2017-10-10T08:21:20.882Z,21.27
2017-10-10T08:23:49.224Z,20.60
2017-10-10T08:26:18.099Z,21.40
2017-10-10T08:28:46.249Z,22.00
2017-10-10T08:31:14.372Z,19.90
2017-10-10T08:33:43.900Z,19.87
2017-10-10T08:36:12.045Z,20.53
2017-10-10T08:38:41.381Z,19.00
2017-10-10T08:41:09.667Z,19.80
2017-10-10T08:43:37.821Z,20.93
2017-10-10T08:46:06.000Z,21.50
2017-10-10T08:48:34.146Z,19.03
2017-10-10T08:51:03.136Z,20.20
2017-10-10T08:53:32.062Z,18.70
2017-10-10T08:56:00.202Z,22.23
2017-10-10T08:58:29.136Z,19.93
2017-10-10T09:00:57.817Z,19.40
2017-10-10T09:03:25.969Z,20.97
2017-10-10T09:05:54.087Z,20.97
2017-10-10T09:08:22.217Z,21.10
2017-10-10T09:10:50.340Z,24.10
2017-10-10T09:13:18.490Z,22.17
2017-10-10T09:15:46.599Z,20.13
2017-10-10T09:18:14.751Z,19.73
2017-10-10T09:20:42.859Z,20.37
2017-10-10T09:23:11.786Z,18.73
2017-10-10T09:25:41.151Z,18.47
2017-10-10T09:28:10.027Z,20.30
2017-10-10T09:30:38.160Z,20.43
2017-10-10T09:33:07.564Z,17.73
2017-10-10T09:35:36.168Z,16.50
2017-10-10T09:38:05.100Z,17.10
2017-10-10T09:40:35.420Z,17.03
2017-10-10T09:43:04.293Z,12.57
2017-10-10T09:45:32.985Z,14.20
2017-10-10T09:48:01.105Z,14.33
2017-10-10T09:50:29.239Z,14.17
2017-10-10T09:52:57.358Z,12.60
2017-10-10T09:55:25.504Z,11.80
2017-10-10T09:57:53.621Z,12.57
2017-10-10T10:00:21.767Z,12.47
2017-10-10T10:02:49.888Z,12.43
2017-10-10T10:05:18.038Z,11.73
2017-10-10T10:07:46.162Z,12.20
2017-10-10T10:10:16.157Z,12.37
2017-10-10T10:12:44.278Z,12.90
2017-10-10T10:15:12.417Z,10.97
2017-10-10T10:17:41.299Z,9.23
2017-10-10T10:20:10.235Z,10.80
2017-10-10T10:22:38.350Z,11.90
2017-10-10T10:25:06.516Z,10.67
2017-10-10T10:27:34.662Z,10.90
2017-10-10T10:30:04.091Z,12.90
2017-10-10T10:32:32.215Z,14.00
2017-10-10T10:35:00.402Z,15.67
2017-10-10T10:37:29.638Z,13.63
2017-10-10T10:39:57.744Z,15.00
2017-10-10T10:42:26.659Z,14.97
2017-10-10T10:44:54.774Z,15.27
2017-10-10T10:47:22.928Z,15.60
2017-10-10T10:49:52.379Z,15.23
2017-10-10T10:52:24.471Z,16.87
2017-10-10T10:54:52.586Z,16.57
2017-10-10T10:57:20.727Z,18.07
2017-10-10T10:59:48.835Z,17.83
2017-10-10T11:02:16.972Z,20.07
2017-10-10T11:04:46.576Z,19.50
2017-10-10T11:07:14.713Z,20.43
2017-10-10T11:09:42.818Z,21.07
2017-10-10T11:12:10.952Z,23.73
2017-10-10T11:14:39.078Z,22.30
2017-10-10T11:17:07.238Z,22.03
2017-10-10T11:19:35.376Z,23.60
2017-10-10T11:22:03.514Z,21.00
2017-10-10T11:24:31.666Z,22.40
2017-10-10T11:27:00.704Z,21.53
2017-10-10T11:29:28.820Z,23.07
2017-10-10T11:31:56.956Z,22.37
2017-10-10T11:34:25.090Z,22.07
2017-10-10T11:36:53.278Z,21.00
2017-10-10T11:39:21.414Z,22.53
2017-10-10T11:41:50.834Z,23.17
2017-10-10T11:44:18.948Z,23.87
2017-10-10T11:46:47.130Z,24.23
2017-10-10T11:49:16.028Z,24.43
2017-10-10T11:51:45.933Z,23.27
2017-10-10T11:54:14.074Z,22.87
2017-10-10T11:56:42.219Z,24.27
2017-10-10T11:59:10.385Z,22.43
2017-10-10T12:01:39.674Z,21.87
2017-10-10T12:04:08.578Z,21.30
2017-10-10T12:06:37.344Z,21.53
2017-10-10T12:09:06.254Z,21.87
2017-10-10T12:11:34.389Z,21.37
2017-10-10T12:14:02.536Z,21.67
2017-10-10T12:16:30.662Z,21.60
2017-10-10T12:18:59.573Z,20.90
2017-10-10T12:21:27.693Z,21.13
2017-10-10T12:23:55.910Z,20.60
2017-10-10T12:26:24.022Z,21.30
2017-10-10T12:28:52.520Z,20.47
2017-10-10T12:31:21.315Z,20.53
2017-10-10T12:33:49.488Z,20.90
2017-10-10T12:36:17.622Z,19.30
2017-10-10T12:38:45.775Z,22.13
2017-10-10T12:41:15.177Z,20.57
2017-10-10T12:43:45.296Z,21.40
2017-10-10T12:46:14.813Z,22.70
2017-10-10T12:48:43.389Z,23.37
2017-10-10T12:51:12.488Z,22.87
2017-10-10T12:53:40.624Z,22.50
2017-10-10T12:56:09.220Z,23.77
2017-10-10T12:58:39.381Z,24.90
2017-10-10T13:01:08.875Z,24.33
2017-10-10T13:03:37.020Z,25.80
2017-10-10T13:06:05.933Z,24.77
2017-10-10T13:08:34.962Z,25.27
2017-10-10T13:11:03.086Z,24.27
2017-10-10T13:13:31.967Z,24.60
2017-10-10T13:16:00.893Z,24.60
2017-10-10T13:18:30.229Z,26.57
2017-10-10T13:20:59.106Z,25.30
2017-10-10T13:23:27.240Z,25.67
2017-10-10T13:25:56.647Z,23.80
2017-10-10T13:28:24.775Z,24.77
2017-10-10T13:30:52.899Z,26.27
2017-10-10T13:33:21.052Z,25.13
2017-10-10T13:35:52.756Z,24.87
2017-10-10T13:38:20.928Z,26.23
2017-10-10T13:40:51.528Z,25.20
2017-10-10T13:43:20.422Z,25.40
2017-10-10T13:45:49.287Z,25.27
2017-10-10T13:48:18.565Z,24.40
2017-10-10T13:50:48.510Z,24.20
2017-10-10T13:53:17.352Z,25.50
2017-10-10T13:55:46.674Z,25.93
2017-10-10T13:58:15.580Z,24.50
2017-10-10T14:00:45.397Z,27.23
2017-10-10T14:03:14.896Z,25.30
2017-10-10T14:05:44.976Z,25.80
2017-10-10T14:08:14.777Z,25.57
2017-10-10T14:10:44.884Z,25.50
2017-10-10T14:13:12.993Z,26.30
2017-10-10T14:15:41.159Z,23.93
2017-10-10T14:18:09.778Z,25.00
2017-10-10T14:20:37.917Z,25.63
2017-10-10T14:23:07.149Z,24.57
2017-10-10T14:25:36.505Z,22.50
2017-10-10T14:28:07.824Z,25.40
2017-10-10T14:30:35.998Z,24.37
2017-10-10T14:33:04.568Z,24.87
2017-10-10T14:35:34.556Z,26.93
2017-10-10T14:38:03.963Z,23.70
2017-10-10T14:40:32.096Z,24.97
2017-10-10T14:43:00.237Z,25.30
2017-10-10T14:45:28.438Z,27.40
2017-10-10T14:47:57.560Z,27.23
2017-10-10T14:50:25.735Z,25.43
2017-10-10T14:52:55.616Z,23.90
2017-10-10T14:55:24.592Z,25.77
2017-10-10T14:57:53.884Z,24.93
2017-10-10T15:00:23.702Z,23.30
2017-10-10T15:02:52.325Z,26.70
2017-10-10T15:05:21.644Z,25.27
2017-10-10T15:07:49.805Z,24.80
2017-10-10T15:10:19.148Z,25.97
2017-10-10T15:12:48.268Z,23.70
2017-10-10T15:15:17.161Z,25.20
2017-10-10T15:17:46.775Z,24.80
2017-10-10T15:20:15.784Z,26.63
2017-10-10T15:22:44.354Z,29.00
2017-10-10T15:25:12.954Z,23.80
2017-10-10T15:27:41.150Z,26.17
2017-10-10T15:30:09.775Z,25.63
2017-10-10T15:32:38.686Z,24.40
2017-10-10T15:35:07.628Z,23.10
2017-10-10T15:37:36.311Z,24.20
2017-10-10T15:40:05.646Z,23.27
2017-10-10T15:42:34.559Z,23.43
2017-10-10T15:45:02.691Z,21.60
2017-10-10T15:47:30.849Z,23.87
2017-10-10T15:49:58.974Z,25.17
2017-10-10T15:52:27.133Z,24.17
2017-10-10T15:54:56.034Z,25.53
2017-10-10T15:57:24.227Z,27.33
2017-10-10T15:59:52.336Z,26.83
2017-10-10T16:02:20.487Z,25.27
2017-10-10T16:04:48.716Z,21.77
2017-10-10T16:07:17.633Z,23.47
2017-10-10T16:09:45.776Z,22.77
2017-10-10T16:12:13.927Z,23.50
2017-10-10T16:14:42.053Z,23.20
2017-10-10T16:17:11.424Z,21.33
2017-10-10T16:19:39.540Z,23.03
2017-10-10T16:22:07.687Z,23.60
2017-10-10T16:24:35.845Z,22.30
2017-10-10T16:27:04.747Z,22.93
2017-10-10T16:29:37.302Z,20.63
2017-10-10T16:32:05.462Z,21.50
2017-10-10T16:34:33.789Z,22.53
2017-10-10T16:37:02.383Z,22.90
2017-10-10T16:39:31.065Z,22.83
2017-10-10T16:41:59.734Z,23.00
2017-10-10T16:44:27.879Z,21.20
2017-10-10T16:46:57.818Z,32.93
2017-10-10T16:49:26.715Z,24.20
2017-10-10T16:51:55.634Z,24.40
2017-10-10T16:54:25.803Z,23.20
2017-10-10T16:56:54.580Z,24.90
2017-10-10T16:59:24.080Z,35.80
2017-10-10T17:01:53.583Z,25.13
2017-10-10T17:04:23.084Z,27.60
2017-10-10T17:06:51.983Z,25.90
2017-10-10T17:09:21.404Z,24.83
2017-10-10T17:11:50.972Z,23.03
2017-10-10T17:14:20.458Z,40.80
2017-10-10T17:16:48.956Z,26.90
2017-10-10T17:19:19.945Z,25.53
2017-10-10T17:21:49.535Z,46.60
2017-10-10T17:24:18.880Z,106.30
2017-10-10T17:26:49.267Z,16.70
2017-10-10T17:29:18.480Z,30.80
2017-10-10T17:31:47.377Z,18.67
2017-10-10T17:34:17.796Z,14.47
2017-10-10T17:36:46.700Z,15.73
2017-10-10T17:39:15.605Z,16.43
2017-10-10T17:41:50.840Z,14.73
2017-10-10T17:44:23.027Z,15.17
2017-10-10T17:46:51.148Z,13.57
2017-10-10T17:49:21.309Z,13.10
2017-10-10T17:51:49.429Z,15.53
2017-10-10T17:54:18.280Z,14.50
2017-10-10T17:56:46.410Z,14.80
2017-10-10T17:59:16.264Z,12.90
2017-10-10T18:01:44.376Z,14.30
2017-10-10T18:04:12.989Z,11.70
2017-10-10T18:06:41.917Z,11.57
2017-10-10T18:09:12.113Z,11.30
2017-10-10T18:11:41.591Z,12.07
2017-10-10T18:14:11.918Z,12.80
2017-10-10T18:16:42.327Z,14.40
2017-10-10T18:19:10.462Z,11.83
2017-10-10T18:21:40.767Z,11.00
2017-10-10T18:24:12.041Z,13.93
2017-10-10T18:26:41.372Z,9.97
2017-10-10T18:29:09.514Z,10.33
2017-10-10T18:31:37.631Z,9.63
2017-10-10T18:34:05.942Z,9.37
2017-10-10T18:36:34.062Z,10.83
2017-10-10T18:39:04.326Z,10.30
2017-10-10T18:41:33.691Z,9.70
2017-10-10T18:44:06.131Z,10.57
2017-10-10T18:46:35.813Z,9.10
2017-10-10T18:49:06.323Z,9.60
2017-10-10T18:51:36.095Z,10.43
2017-10-10T18:54:04.361Z,9.50
2017-10-10T18:56:33.694Z,9.30
2017-10-10T18:59:01.820Z,9.67
2017-10-10T19:01:30.077Z,9.20
2017-10-10T19:04:00.406Z,9.67
2017-10-10T19:06:29.302Z,11.00
2017-10-10T19:08:58.307Z,11.20
2017-10-10T19:11:27.802Z,10.90
2017-10-10T19:13:57.212Z,11.00
2017-10-10T19:16:26.729Z,13.10
2017-10-10T19:18:55.277Z,11.20
2017-10-10T19:21:23.409Z,15.20
2017-10-10T19:23:52.638Z,13.50
2017-10-10T19:26:21.084Z,13.10
2017-10-10T19:28:50.119Z,13.57
2017-10-10T19:31:19.129Z,13.90
2017-10-10T19:33:51.864Z,13.13
2017-10-10T19:36:22.501Z,13.60
2017-10-10T19:38:52.471Z,13.93
2017-10-10T19:41:21.659Z,13.60
2017-10-10T19:43:50.543Z,15.30
2017-10-10T19:46:21.279Z,14.70
2017-10-10T19:48:51.569Z,15.20
2017-10-10T19:51:20.722Z,16.17
2017-10-10T19:53:48.899Z,15.13
2017-10-10T19:56:17.509Z,16.23
2017-10-10T19:58:45.628Z,17.30
2017-10-10T20:01:14.550Z,19.17
2017-10-10T20:03:42.707Z,20.33
2017-10-10T20:06:12.067Z,20.90
2017-10-10T20:08:43.102Z,20.13
2017-10-10T20:11:12.050Z,20.47
2017-10-10T20:13:40.165Z,21.97
2017-10-10T20:16:09.535Z,21.17
2017-10-10T20:18:37.648Z,21.53
2017-10-10T20:21:07.828Z,20.13
2017-10-10T20:23:36.025Z,25.10
2017-10-10T20:26:04.249Z,21.00
2017-10-10T20:28:34.060Z,20.90
2017-10-10T20:31:02.946Z,19.77
2017-10-10T20:33:32.049Z,22.10
2017-10-10T20:36:06.110Z,20.73
2017-10-10T20:38:34.398Z,22.97
2017-10-10T20:41:02.742Z,21.17
2017-10-10T20:43:30.925Z,20.87
2017-10-10T20:46:01.010Z,21.67
2017-10-10T20:48:29.936Z,23.10
2017-10-10T20:51:00.128Z,22.90
2017-10-10T20:53:34.589Z,20.50
2017-10-10T20:56:05.171Z,22.27
2017-10-10T20:58:35.386Z,22.50
2017-10-10T21:01:06.346Z,21.17
2017-10-10T21:03:37.592Z,21.00
2017-10-10T21:06:07.187Z,23.20
2017-10-10T21:08:42.058Z,24.10
2017-10-10T21:11:10.198Z,21.07
2017-10-10T21:13:40.017Z,22.00
2017-10-10T21:16:15.271Z,21.57
2017-10-10T21:18:43.413Z,20.13
2017-10-10T21:21:13.582Z,21.27
2017-10-10T21:23:42.736Z,21.80
2017-10-10T21:26:12.603Z,21.87
2017-10-10T21:28:41.752Z,20.73
2017-10-10T21:31:14.748Z,20.00
2017-10-10T21:36:18.555Z,18.83
2017-10-10T21:38:47.461Z,18.83
2017-10-10T21:41:17.869Z,18.17
2017-10-10T21:43:47.300Z,17.60
2017-10-10T21:46:18.653Z,17.03
2017-10-10T21:48:46.908Z,17.80
2017-10-10T21:51:15.833Z,16.90
2017-10-10T21:53:46.456Z,16.00
2017-10-10T21:56:16.759Z,15.87
2017-10-10T21:58:52.287Z,15.33
2017-10-10T22:01:20.446Z,17.60
2017-10-10T22:03:48.557Z,15.77
2017-10-10T22:06:16.718Z,16.57
2017-10-10T22:08:47.123Z,16.60
2017-10-10T22:11:17.486Z,16.10
2017-10-10T22:13:50.223Z,14.93
2017-10-10T22:16:22.383Z,15.13
2017-10-10T22:18:52.250Z,15.90
2017-10-10T22:21:23.613Z,15.10
2017-10-10T22:23:52.645Z,15.57
2017-10-10T22:26:20.772Z,14.43
2017-10-10T22:28:50.772Z,14.70
2017-10-10T22:31:25.544Z,14.20
2017-10-10T22:33:53.670Z,16.90
2017-10-10T22:36:28.403Z,15.03
2017-10-10T22:38:56.552Z,15.07
2017-10-10T22:41:26.721Z,14.70
2017-10-10T22:43:54.842Z,15.53
2017-10-10T22:46:23.023Z,14.70
2017-10-10T22:48:52.960Z,14.87
2017-10-10T22:51:21.979Z,16.10
2017-10-10T22:53:50.538Z,14.60
2017-10-10T22:56:19.458Z,13.50
2017-10-10T22:58:48.825Z,14.30
2017-10-10T23:01:18.447Z,13.77
2017-10-10T23:03:46.568Z,13.97
2017-10-10T23:06:15.539Z,13.90
2017-10-10T23:08:46.339Z,14.47
2017-10-10T23:11:16.194Z,14.80
2017-10-10T23:13:44.344Z,13.90
2017-10-10T23:16:15.321Z,13.40
2017-10-10T23:18:44.498Z,14.60
2017-10-10T23:21:15.613Z,13.90
2017-10-10T23:23:46.545Z,14.03
2017-10-10T23:26:17.073Z,15.10
2017-10-10T23:28:45.677Z,14.20
2017-10-10T23:31:15.452Z,14.10
2017-10-10T23:33:47.866Z,14.70
2017-10-10T23:36:15.996Z,13.13
2017-10-10T23:38:44.612Z,14.53
2017-10-10T23:41:14.324Z,15.63
2017-10-10T23:43:42.501Z,15.67
2017-10-10T23:46:10.636Z,13.70
2017-10-10T23:48:38.772Z,14.37
2017-10-10T23:51:10.542Z,14.10
2017-10-10T23:53:41.224Z,13.93
2017-10-10T23:56:09.812Z,15.27
2017-10-10T23:58:38.721Z,13.97
